sensor_id;sensor_type;location;lat;lon;timestamp;P1;durP1;ratioP1;P2;durP2;ratioP2
71174;SDS011;58876;51.994;4.472;2023-11-19T00:00:19;43.32;;;43.32;;
71174;SDS011;58876;51.994;4.472;2023-11-19T00:02:44;21.52;;;21.52;;
71174;SDS011;58876;51.994;4.472;2023-11-19T00:05:10;25.63;;;25.63;;
71174;SDS011;58876;51.994;4.472;2023-11-19T00:07:39;452.97;;;452.97;;
71174;SDS011;58876;51.994;4.472;2023-11-19T00:10:12;48.14;;;48.14;;
71174;SDS011;58876;51.994;4.472;2023-11-19T00:12:46;29.97;;;29.97;;
71174;SDS011;58876;51.994;4.472;2023-11-19T00:15:13;28.23;;;28.23;;
71174;SDS011;58876;51.994;4.472;2023-11-19T00:17:40;25.93;;;25.93;;
71174;SDS011;58876;51.994;4.472;2023-11-19T00:20:12;18.19;;;18.19;;
71174;SDS011;58876;51.994;4.472;2023-11-19T00:22:42;20.32;;;20.32;;
71174;SDS011;58876;51.994;4.472;2023-11-19T00:25:08;19.76;;;19.76;;
71174;SDS011;58876;51.994;4.472;2023-11-19T00:27:34;17.44;;;17.44;;
71174;SDS011;58876;51.994;4.472;2023-11-19T00:30:04;15.48;;;15.48;;
71174;SDS011;58876;51.994;4.472;2023-11-19T00:32:34;32.16;;;32.16;;
71174;SDS011;58876;51.994;4.472;2023-11-19T00:35:00;21.73;;;21.73;;
71174;SDS011;58876;51.994;4.472;2023-11-19T00:37:26;15.64;;;15.64;;
71174;SDS011;58876;51.994;4.472;2023-11-19T00:39:51;19.88;;;19.88;;
71174;SDS011;58876;51.994;4.472;2023-11-19T00:42:17;18.69;;;18.69;;
71174;SDS011;58876;51.994;4.472;2023-11-19T00:44:43;21.17;;;21.17;;
71174;SDS011;58876;51.994;4.472;2023-11-19T00:47:08;23.12;;;23.12;;
71174;SDS011;58876;51.994;4.472;2023-11-19T00:49:34;20.11;;;20.11;;
71174;SDS011;58876;51.994;4.472;2023-11-19T00:52:00;22.16;;;22.16;;
71174;SDS011;58876;51.994;4.472;2023-11-19T00:54:25;17.15;;;17.15;;
71174;SDS011;58876;51.994;4.472;2023-11-19T00:56:54;23.58;;;23.58;;
71174;SDS011;58876;51.994;4.472;2023-11-19T00:59:20;34.44;;;34.44;;
71174;SDS011;58876;51.994;4.472;2023-11-19T01:01:45;25.95;;;25.95;;
71174;SDS011;58876;51.994;4.472;2023-11-19T01:04:13;22.36;;;22.36;;
71174;SDS011;58876;51.994;4.472;2023-11-19T01:06:39;24.49;;;24.49;;
71174;SDS011;58876;51.994;4.472;2023-11-19T01:09:05;32.08;;;32.08;;
71174;SDS011;58876;51.994;4.472;2023-11-19T01:11:30;45.18;;;45.18;;
71174;SDS011;58876;51.994;4.472;2023-11-19T01:13:56;71.69;;;71.69;;
71174;SDS011;58876;51.994;4.472;2023-11-19T01:16:22;56.88;;;56.88;;
71174;SDS011;58876;51.994;4.472;2023-11-19T01:18:48;48.40;;;48.40;;
71174;SDS011;58876;51.994;4.472;2023-11-19T01:21:14;40.21;;;40.21;;
71174;SDS011;58876;51.994;4.472;2023-11-19T01:23:40;26.36;;;26.36;;
71174;SDS011;58876;51.994;4.472;2023-11-19T01:26:08;23.98;;;23.98;;
71174;SDS011;58876;51.994;4.472;2023-11-19T01:28:35;24.40;;;24.40;;
71174;SDS011;58876;51.994;4.472;2023-11-19T01:31:01;21.35;;;21.35;;
71174;SDS011;58876;51.994;4.472;2023-11-19T01:33:28;19.44;;;19.44;;
71174;SDS011;58876;51.994;4.472;2023-11-19T01:35:54;14.21;;;14.21;;
71174;SDS011;58876;51.994;4.472;2023-11-19T01:38:19;13.31;;;12.72;;
71174;SDS011;58876;51.994;4.472;2023-11-19T01:40:45;17.87;;;14.55;;
71174;SDS011;58876;51.994;4.472;2023-11-19T01:43:10;14.70;;;13.01;;
71174;SDS011;58876;51.994;4.472;2023-11-19T01:45:40;15.03;;;14.46;;
71174;SDS011;58876;51.994;4.472;2023-11-19T01:48:05;13.56;;;13.56;;
71174;SDS011;58876;51.994;4.472;2023-11-19T01:50:31;14.74;;;14.74;;
71174;SDS011;58876;51.994;4.472;2023-11-19T01:52:58;14.24;;;14.24;;
71174;SDS011;58876;51.994;4.472;2023-11-19T01:55:25;14.81;;;14.81;;
71174;SDS011;58876;51.994;4.472;2023-11-19T01:57:53;14.71;;;14.71;;
71174;SDS011;58876;51.994;4.472;2023-11-19T02:00:24;17.67;;;17.67;;
71174;SDS011;58876;51.994;4.472;2023-11-19T02:02:50;14.01;;;14.01;;
71174;SDS011;58876;51.994;4.472;2023-11-19T02:05:17;17.46;;;17.46;;
71174;SDS011;58876;51.994;4.472;2023-11-19T02:07:43;123.50;;;123.50;;
71174;SDS011;58876;51.994;4.472;2023-11-19T02:10:09;405.93;;;405.93;;
71174;SDS011;58876;51.994;4.472;2023-11-19T02:12:42;484.44;;;484.44;;
71174;SDS011;58876;51.994;4.472;2023-11-19T02:15:08;594.48;;;594.48;;
71174;SDS011;58876;51.994;4.472;2023-11-19T02:17:37;657.03;;;657.03;;
71174;SDS011;58876;51.994;4.472;2023-11-19T02:20:06;662.44;;;662.44;;
71174;SDS011;58876;51.994;4.472;2023-11-19T02:22:34;633.03;;;633.03;;
71174;SDS011;58876;51.994;4.472;2023-11-19T02:25:00;649.87;;;649.87;;
71174;SDS011;58876;51.994;4.472;2023-11-19T02:30:16;651.69;;;651.69;;
71174;SDS011;58876;51.994;4.472;2023-11-19T02:32:42;755.08;;;755.08;;
71174;SDS011;58876;51.994;4.472;2023-11-19T02:35:08;782.37;;;782.37;;
71174;SDS011;58876;51.994;4.472;2023-11-19T02:37:36;751.09;;;751.09;;
71174;SDS011;58876;51.994;4.472;2023-11-19T02:40:01;844.91;;;844.91;;
71174;SDS011;58876;51.994;4.472;2023-11-19T02:42:28;824.05;;;824.05;;
71174;SDS011;58876;51.994;4.472;2023-11-19T02:44:54;865.50;;;865.50;;
71174;SDS011;58876;51.994;4.472;2023-11-19T02:47:19;867.58;;;867.58;;
71174;SDS011;58876;51.994;4.472;2023-11-19T02:49:46;930.99;;;930.99;;
71174;SDS011;58876;51.994;4.472;2023-11-19T02:52:13;928.87;;;928.87;;
71174;SDS011;58876;51.994;4.472;2023-11-19T02:54:39;805.15;;;805.15;;
71174;SDS011;58876;51.994;4.472;2023-11-19T02:57:06;898.99;;;898.99;;
71174;SDS011;58876;51.994;4.472;2023-11-19T02:59:35;991.87;;;991.87;;
71174;SDS011;58876;51.994;4.472;2023-11-19T03:02:04;1028.05;;;1028.05;;
71174;SDS011;58876;51.994;4.472;2023-11-19T03:04:32;1085.55;;;1085.55;;
71174;SDS011;58876;51.994;4.472;2023-11-19T03:06:58;1052.36;;;1052.36;;
71174;SDS011;58876;51.994;4.472;2023-11-19T03:09:24;1079.93;;;1079.93;;
71174;SDS011;58876;51.994;4.472;2023-11-19T03:11:49;1064.36;;;1064.36;;
71174;SDS011;58876;51.994;4.472;2023-11-19T03:14:15;1062.26;;;1062.26;;
71174;SDS011;58876;51.994;4.472;2023-11-19T03:16:40;1064.04;;;1064.04;;
71174;SDS011;58876;51.994;4.472;2023-11-19T03:19:06;1053.77;;;1053.77;;
71174;SDS011;58876;51.994;4.472;2023-11-19T03:21:31;1091.77;;;1091.77;;
71174;SDS011;58876;51.994;4.472;2023-11-19T03:23:57;1034.45;;;1034.45;;
71174;SDS011;58876;51.994;4.472;2023-11-19T03:26:27;1095.02;;;1095.02;;
71174;SDS011;58876;51.994;4.472;2023-11-19T03:28:52;1105.49;;;1105.49;;
71174;SDS011;58876;51.994;4.472;2023-11-19T03:31:18;1080.99;;;1080.99;;
71174;SDS011;58876;51.994;4.472;2023-11-19T03:33:44;1084.79;;;1084.79;;
71174;SDS011;58876;51.994;4.472;2023-11-19T03:36:10;1071.15;;;1071.15;;
71174;SDS011;58876;51.994;4.472;2023-11-19T03:38:35;1084.28;;;1084.28;;
71174;SDS011;58876;51.994;4.472;2023-11-19T03:41:09;1089.68;;;1089.68;;
71174;SDS011;58876;51.994;4.472;2023-11-19T03:43:38;1074.93;;;1074.93;;
71174;SDS011;58876;51.994;4.472;2023-11-19T03:46:04;1094.88;;;1094.88;;
71174;SDS011;58876;51.994;4.472;2023-11-19T03:48:30;1078.83;;;1078.83;;
71174;SDS011;58876;51.994;4.472;2023-11-19T03:50:56;1063.22;;;1063.22;;
71174;SDS011;58876;51.994;4.472;2023-11-19T03:53:22;1031.45;;;1031.45;;
71174;SDS011;58876;51.994;4.472;2023-11-19T03:55:49;1057.31;;;1057.31;;
71174;SDS011;58876;51.994;4.472;2023-11-19T03:58:15;1011.46;;;1011.46;;
71174;SDS011;58876;51.994;4.472;2023-11-19T04:00:40;1037.10;;;1037.10;;
71174;SDS011;58876;51.994;4.472;2023-11-19T04:03:06;922.83;;;922.83;;
71174;SDS011;58876;51.994;4.472;2023-11-19T04:05:31;986.78;;;986.78;;
71174;SDS011;58876;51.994;4.472;2023-11-19T04:07:56;791.15;;;791.15;;
71174;SDS011;58876;51.994;4.472;2023-11-19T04:10:22;441.93;;;441.93;;
71174;SDS011;58876;51.994;4.472;2023-11-19T04:12:48;432.84;;;432.84;;
71174;SDS011;58876;51.994;4.472;2023-11-19T04:15:14;474.67;;;474.67;;
71174;SDS011;58876;51.994;4.472;2023-11-19T04:17:40;427.45;;;427.45;;
71174;SDS011;58876;51.994;4.472;2023-11-19T04:20:06;369.40;;;369.40;;
71174;SDS011;58876;51.994;4.472;2023-11-19T04:22:36;343.42;;;343.42;;
71174;SDS011;58876;51.994;4.472;2023-11-19T04:25:01;311.54;;;311.54;;
71174;SDS011;58876;51.994;4.472;2023-11-19T04:27:27;297.54;;;297.54;;
71174;SDS011;58876;51.994;4.472;2023-11-19T04:29:52;272.91;;;272.91;;
71174;SDS011;58876;51.994;4.472;2023-11-19T04:32:18;338.31;;;338.31;;
71174;SDS011;58876;51.994;4.472;2023-11-19T04:34:44;262.15;;;262.15;;
71174;SDS011;58876;51.994;4.472;2023-11-19T04:37:09;305.25;;;305.25;;
71174;SDS011;58876;51.994;4.472;2023-11-19T04:39:35;279.77;;;279.77;;
71174;SDS011;58876;51.994;4.472;2023-11-19T04:42:01;196.71;;;196.71;;
71174;SDS011;58876;51.994;4.472;2023-11-19T04:44:26;111.93;;;111.93;;
71174;SDS011;58876;51.994;4.472;2023-11-19T04:46:51;119.52;;;119.52;;
71174;SDS011;58876;51.994;4.472;2023-11-19T04:49:17;108.01;;;108.01;;
71174;SDS011;58876;51.994;4.472;2023-11-19T04:51:44;106.86;;;106.86;;
71174;SDS011;58876;51.994;4.472;2023-11-19T04:54:13;101.70;;;101.70;;
71174;SDS011;58876;51.994;4.472;2023-11-19T04:56:39;107.35;;;107.35;;
71174;SDS011;58876;51.994;4.472;2023-11-19T04:59:05;116.08;;;116.08;;
71174;SDS011;58876;51.994;4.472;2023-11-19T05:01:34;102.85;;;102.85;;
71174;SDS011;58876;51.994;4.472;2023-11-19T05:04:00;97.10;;;97.10;;
71174;SDS011;58876;51.994;4.472;2023-11-19T05:06:30;91.53;;;91.53;;
71174;SDS011;58876;51.994;4.472;2023-11-19T05:08:57;95.49;;;95.49;;
71174;SDS011;58876;51.994;4.472;2023-11-19T05:11:29;94.98;;;94.98;;
71174;SDS011;58876;51.994;4.472;2023-11-19T05:13:55;89.13;;;89.13;;
71174;SDS011;58876;51.994;4.472;2023-11-19T05:16:20;91.57;;;91.57;;
71174;SDS011;58876;51.994;4.472;2023-11-19T05:18:46;85.07;;;85.07;;
71174;SDS011;58876;51.994;4.472;2023-11-19T05:21:11;89.63;;;89.63;;
71174;SDS011;58876;51.994;4.472;2023-11-19T05:23:38;79.44;;;79.44;;
71174;SDS011;58876;51.994;4.472;2023-11-19T05:26:04;83.73;;;83.73;;
71174;SDS011;58876;51.994;4.472;2023-11-19T05:28:30;71.56;;;71.56;;
71174;SDS011;58876;51.994;4.472;2023-11-19T05:30:55;67.59;;;67.59;;
71174;SDS011;58876;51.994;4.472;2023-11-19T05:33:21;70.31;;;70.31;;
71174;SDS011;58876;51.994;4.472;2023-11-19T05:35:47;71.10;;;71.10;;
71174;SDS011;58876;51.994;4.472;2023-11-19T05:38:12;68.63;;;68.63;;
71174;SDS011;58876;51.994;4.472;2023-11-19T05:40:38;70.12;;;70.12;;
71174;SDS011;58876;51.994;4.472;2023-11-19T05:43:04;79.55;;;79.55;;
71174;SDS011;58876;51.994;4.472;2023-11-19T05:45:30;87.81;;;87.81;;
71174;SDS011;58876;51.994;4.472;2023-11-19T05:47:56;105.08;;;105.08;;
71174;SDS011;58876;51.994;4.472;2023-11-19T05:50:22;104.45;;;104.45;;
71174;SDS011;58876;51.994;4.472;2023-11-19T05:52:47;91.51;;;91.51;;
71174;SDS011;58876;51.994;4.472;2023-11-19T05:55:13;83.60;;;83.60;;
71174;SDS011;58876;51.994;4.472;2023-11-19T05:57:39;73.88;;;73.88;;
71174;SDS011;58876;51.994;4.472;2023-11-19T06:00:07;58.94;;;58.94;;
71174;SDS011;58876;51.994;4.472;2023-11-19T06:02:35;51.79;;;51.79;;
71174;SDS011;58876;51.994;4.472;2023-11-19T06:05:02;60.41;;;60.41;;
71174;SDS011;58876;51.994;4.472;2023-11-19T06:07:30;73.70;;;73.70;;
71174;SDS011;58876;51.994;4.472;2023-11-19T06:09:56;51.15;;;51.15;;
71174;SDS011;58876;51.994;4.472;2023-11-19T06:12:21;65.64;;;65.64;;
71174;SDS011;58876;51.994;4.472;2023-11-19T06:14:47;60.96;;;60.96;;
71174;SDS011;58876;51.994;4.472;2023-11-19T06:17:12;51.59;;;51.59;;
71174;SDS011;58876;51.994;4.472;2023-11-19T06:19:38;43.30;;;43.30;;
71174;SDS011;58876;51.994;4.472;2023-11-19T06:22:04;42.62;;;42.62;;
71174;SDS011;58876;51.994;4.472;2023-11-19T06:24:30;44.72;;;44.72;;
71174;SDS011;58876;51.994;4.472;2023-11-19T06:26:55;41.75;;;41.75;;
71174;SDS011;58876;51.994;4.472;2023-11-19T06:29:21;46.19;;;46.19;;
71174;SDS011;58876;51.994;4.472;2023-11-19T06:31:46;47.34;;;47.34;;
71174;SDS011;58876;51.994;4.472;2023-11-19T06:34:15;58.41;;;58.41;;
71174;SDS011;58876;51.994;4.472;2023-11-19T06:36:40;56.51;;;56.51;;
71174;SDS011;58876;51.994;4.472;2023-11-19T06:39:08;46.36;;;46.36;;
71174;SDS011;58876;51.994;4.472;2023-11-19T06:41:34;46.26;;;46.26;;
71174;SDS011;58876;51.994;4.472;2023-11-19T06:43:59;44.29;;;44.29;;
71174;SDS011;58876;51.994;4.472;2023-11-19T06:46:25;52.65;;;52.65;;
71174;SDS011;58876;51.994;4.472;2023-11-19T06:48:50;56.75;;;56.75;;
71174;SDS011;58876;51.994;4.472;2023-11-19T06:51:16;78.40;;;78.40;;
71174;SDS011;58876;51.994;4.472;2023-11-19T06:53:45;79.60;;;79.60;;
71174;SDS011;58876;51.994;4.472;2023-11-19T06:56:17;82.37;;;82.37;;
71174;SDS011;58876;51.994;4.472;2023-11-19T06:58:44;75.18;;;75.18;;
71174;SDS011;58876;51.994;4.472;2023-11-19T07:01:10;74.45;;;74.45;;
71174;SDS011;58876;51.994;4.472;2023-11-19T07:03:36;66.86;;;66.86;;
71174;SDS011;58876;51.994;4.472;2023-11-19T07:06:01;61.46;;;61.46;;
71174;SDS011;58876;51.994;4.472;2023-11-19T07:08:28;80.21;;;80.21;;
71174;SDS011;58876;51.994;4.472;2023-11-19T07:10:54;80.96;;;80.96;;
71174;SDS011;58876;51.994;4.472;2023-11-19T07:13:19;70.80;;;70.80;;
71174;SDS011;58876;51.994;4.472;2023-11-19T07:15:53;64.03;;;64.03;;
71174;SDS011;58876;51.994;4.472;2023-11-19T07:18:19;73.48;;;73.48;;
71174;SDS011;58876;51.994;4.472;2023-11-19T07:20:48;88.48;;;88.48;;
71174;SDS011;58876;51.994;4.472;2023-11-19T07:23:13;110.23;;;110.23;;
71174;SDS011;58876;51.994;4.472;2023-11-19T07:25:44;100.24;;;100.24;;
71174;SDS011;58876;51.994;4.472;2023-11-19T07:28:12;106.34;;;106.34;;
71174;SDS011;58876;51.994;4.472;2023-11-19T07:30:38;133.29;;;133.29;;
71174;SDS011;58876;51.994;4.472;2023-11-19T07:33:04;108.69;;;108.69;;
71174;SDS011;58876;51.994;4.472;2023-11-19T07:35:29;102.20;;;102.20;;
71174;SDS011;58876;51.994;4.472;2023-11-19T07:40:34;128.87;;;128.87;;
71174;SDS011;58876;51.994;4.472;2023-11-19T07:43:00;161.22;;;161.22;;
71174;SDS011;58876;51.994;4.472;2023-11-19T07:45:25;197.66;;;197.66;;
71174;SDS011;58876;51.994;4.472;2023-11-19T07:47:52;149.40;;;149.40;;
71174;SDS011;58876;51.994;4.472;2023-11-19T07:50:18;124.10;;;124.10;;
71174;SDS011;58876;51.994;4.472;2023-11-19T07:52:45;110.13;;;110.13;;
71174;SDS011;58876;51.994;4.472;2023-11-19T07:55:11;164.80;;;164.80;;
71174;SDS011;58876;51.994;4.472;2023-11-19T07:57:37;142.28;;;142.28;;
71174;SDS011;58876;51.994;4.472;2023-11-19T08:00:03;156.92;;;156.92;;
71174;SDS011;58876;51.994;4.472;2023-11-19T08:02:29;136.14;;;136.14;;
71174;SDS011;58876;51.994;4.472;2023-11-19T08:04:54;192.38;;;192.38;;
71174;SDS011;58876;51.994;4.472;2023-11-19T08:07:20;732.23;;;732.23;;
71174;SDS011;58876;51.994;4.472;2023-11-19T08:09:47;781.22;;;781.22;;
71174;SDS011;58876;51.994;4.472;2023-11-19T08:12:13;961.68;;;961.68;;
71174;SDS011;58876;51.994;4.472;2023-11-19T08:14:41;905.88;;;905.88;;
71174;SDS011;58876;51.994;4.472;2023-11-19T08:17:06;922.19;;;922.19;;
71174;SDS011;58876;51.994;4.472;2023-11-19T08:19:32;962.40;;;962.40;;
71174;SDS011;58876;51.994;4.472;2023-11-19T08:21:57;970.54;;;970.54;;
71174;SDS011;58876;51.994;4.472;2023-11-19T08:24:23;964.75;;;964.75;;
71174;SDS011;58876;51.994;4.472;2023-11-19T08:26:49;983.46;;;983.46;;
71174;SDS011;58876;51.994;4.472;2023-11-19T08:29:14;1043.05;;;1043.05;;
71174;SDS011;58876;51.994;4.472;2023-11-19T08:31:39;958.67;;;958.67;;
71174;SDS011;58876;51.994;4.472;2023-11-19T08:34:05;849.00;;;849.00;;
71174;SDS011;58876;51.994;4.472;2023-11-19T08:36:34;923.90;;;923.90;;
71174;SDS011;58876;51.994;4.472;2023-11-19T08:39:00;757.72;;;757.72;;
71174;SDS011;58876;51.994;4.472;2023-11-19T08:41:25;739.02;;;739.02;;
71174;SDS011;58876;51.994;4.472;2023-11-19T08:43:52;777.30;;;777.30;;
71174;SDS011;58876;51.994;4.472;2023-11-19T08:46:17;760.93;;;760.93;;
71174;SDS011;58876;51.994;4.472;2023-11-19T08:48:43;950.73;;;950.65;;
71174;SDS011;58876;51.994;4.472;2023-11-19T08:51:09;768.98;;;768.98;;
71174;SDS011;58876;51.994;4.472;2023-11-19T08:53:34;758.45;;;758.45;;
71174;SDS011;58876;51.994;4.472;2023-11-19T08:56:00;791.08;;;791.08;;
71174;SDS011;58876;51.994;4.472;2023-11-19T08:58:28;824.81;;;824.81;;
71174;SDS011;58876;51.994;4.472;2023-11-19T09:00:54;815.61;;;815.61;;
71174;SDS011;58876;51.994;4.472;2023-11-19T09:03:19;776.13;;;776.13;;
71174;SDS011;58876;51.994;4.472;2023-11-19T09:05:46;733.47;;;733.47;;
71174;SDS011;58876;51.994;4.472;2023-11-19T09:08:11;669.36;;;669.36;;
71174;SDS011;58876;51.994;4.472;2023-11-19T09:10:37;633.54;;;633.54;;
71174;SDS011;58876;51.994;4.472;2023-11-19T09:13:03;678.15;;;678.15;;
71174;SDS011;58876;51.994;4.472;2023-11-19T09:15:29;660.52;;;660.52;;
71174;SDS011;58876;51.994;4.472;2023-11-19T09:17:55;644.99;;;644.99;;
71174;SDS011;58876;51.994;4.472;2023-11-19T09:20:21;666.32;;;666.32;;
71174;SDS011;58876;51.994;4.472;2023-11-19T09:22:47;633.64;;;633.64;;
71174;SDS011;58876;51.994;4.472;2023-11-19T09:25:13;543.39;;;543.39;;
71174;SDS011;58876;51.994;4.472;2023-11-19T09:27:42;494.00;;;494.00;;
71174;SDS011;58876;51.994;4.472;2023-11-19T09:30:10;315.09;;;315.09;;
71174;SDS011;58876;51.994;4.472;2023-11-19T09:32:37;38.00;;;38.00;;
71174;SDS011;58876;51.994;4.472;2023-11-19T09:35:03;81.41;;;81.41;;
71174;SDS011;58876;51.994;4.472;2023-11-19T09:37:29;127.67;;;127.67;;
71174;SDS011;58876;51.994;4.472;2023-11-19T09:39:55;210.03;;;210.03;;
71174;SDS011;58876;51.994;4.472;2023-11-19T09:42:20;303.44;;;303.44;;
71174;SDS011;58876;51.994;4.472;2023-11-19T09:44:46;219.01;;;219.01;;
71174;SDS011;58876;51.994;4.472;2023-11-19T09:47:13;98.88;;;98.88;;
71174;SDS011;58876;51.994;4.472;2023-11-19T09:49:41;45.50;;;45.50;;
71174;SDS011;58876;51.994;4.472;2023-11-19T09:52:07;23.59;;;23.59;;
71174;SDS011;58876;51.994;4.472;2023-11-19T09:54:33;15.74;;;15.74;;
71174;SDS011;58876;51.994;4.472;2023-11-19T09:56:58;22.66;;;22.66;;
71174;SDS011;58876;51.994;4.472;2023-11-19T09:59:28;19.21;;;19.21;;
71174;SDS011;58876;51.994;4.472;2023-11-19T10:01:55;28.24;;;28.24;;
71174;SDS011;58876;51.994;4.472;2023-11-19T10:04:21;25.06;;;25.06;;
71174;SDS011;58876;51.994;4.472;2023-11-19T10:06:52;21.87;;;21.87;;
71174;SDS011;58876;51.994;4.472;2023-11-19T10:09:17;20.45;;;20.45;;
71174;SDS011;58876;51.994;4.472;2023-11-19T10:11:44;16.11;;;16.11;;
71174;SDS011;58876;51.994;4.472;2023-11-19T10:14:09;21.00;;;21.00;;
71174;SDS011;58876;51.994;4.472;2023-11-19T10:16:35;13.28;;;13.28;;
71174;SDS011;58876;51.994;4.472;2023-11-19T10:19:00;12.46;;;12.46;;
71174;SDS011;58876;51.994;4.472;2023-11-19T10:21:26;48.19;;;48.19;;
71174;SDS011;58876;51.994;4.472;2023-11-19T10:23:56;44.10;;;44.10;;
71174;SDS011;58876;51.994;4.472;2023-11-19T10:26:25;11.21;;;11.21;;
71174;SDS011;58876;51.994;4.472;2023-11-19T10:28:52;14.21;;;14.21;;
71174;SDS011;58876;51.994;4.472;2023-11-19T10:31:18;14.16;;;14.16;;
71174;SDS011;58876;51.994;4.472;2023-11-19T10:33:50;15.31;;;15.31;;
71174;SDS011;58876;51.994;4.472;2023-11-19T10:36:16;15.47;;;15.47;;
71174;SDS011;58876;51.994;4.472;2023-11-19T10:39:02;16.05;;;16.05;;
71174;SDS011;58876;51.994;4.472;2023-11-19T10:41:31;23.12;;;23.12;;
71174;SDS011;58876;51.994;4.472;2023-11-19T10:43:58;16.98;;;16.98;;
71174;SDS011;58876;51.994;4.472;2023-11-19T10:46:36;49.96;;;49.96;;
71174;SDS011;58876;51.994;4.472;2023-11-19T10:49:06;311.68;;;311.68;;
71174;SDS011;58876;51.994;4.472;2023-11-19T10:51:32;311.97;;;311.97;;
71174;SDS011;58876;51.994;4.472;2023-11-19T10:54:04;284.14;;;284.14;;
71174;SDS011;58876;51.994;4.472;2023-11-19T10:56:31;516.25;;;516.25;;
71174;SDS011;58876;51.994;4.472;2023-11-19T10:58:59;445.01;;;445.01;;
71174;SDS011;58876;51.994;4.472;2023-11-19T11:01:32;402.04;;;402.04;;
71174;SDS011;58876;51.994;4.472;2023-11-19T11:04:05;306.47;;;306.47;;
71174;SDS011;58876;51.994;4.472;2023-11-19T11:06:40;135.33;;;135.33;;
71174;SDS011;58876;51.994;4.472;2023-11-19T11:09:07;227.32;;;227.32;;
71174;SDS011;58876;51.994;4.472;2023-11-19T11:11:37;84.49;;;84.49;;
71174;SDS011;58876;51.994;4.472;2023-11-19T11:14:05;38.70;;;38.70;;
71174;SDS011;58876;51.994;4.472;2023-11-19T11:16:37;19.82;;;19.82;;
71174;SDS011;58876;51.994;4.472;2023-11-19T11:19:07;16.32;;;13.43;;
71174;SDS011;58876;51.994;4.472;2023-11-19T11:21:34;19.69;;;14.48;;
71174;SDS011;58876;51.994;4.472;2023-11-19T11:35:24;26.31;;;26.31;;
71174;SDS011;58876;51.994;4.472;2023-11-19T11:38:07;20.63;;;20.63;;
71174;SDS011;58876;51.994;4.472;2023-11-19T11:40:34;22.81;;;22.81;;
71174;SDS011;58876;51.994;4.472;2023-11-19T11:43:01;13.95;;;13.95;;
71174;SDS011;58876;51.994;4.472;2023-11-19T11:45:37;13.07;;;13.07;;
71174;SDS011;58876;51.994;4.472;2023-11-19T11:48:11;9.96;;;9.96;;
71174;SDS011;58876;51.994;4.472;2023-11-19T11:50:49;9.69;;;9.54;;
71174;SDS011;58876;51.994;4.472;2023-11-19T11:53:19;13.55;;;10.48;;
71174;SDS011;58876;51.994;4.472;2023-11-19T11:58:15;11.04;;;11.04;;
71174;SDS011;58876;51.994;4.472;2023-11-19T12:00:43;12.74;;;12.74;;
71174;SDS011;58876;51.994;4.472;2023-11-19T12:03:08;16.40;;;16.40;;
71174;SDS011;58876;51.994;4.472;2023-11-19T12:05:43;45.64;;;45.64;;
71174;SDS011;58876;51.994;4.472;2023-11-19T12:08:10;39.42;;;39.42;;
71174;SDS011;58876;51.994;4.472;2023-11-19T12:13:17;137.09;;;137.09;;
71174;SDS011;58876;51.994;4.472;2023-11-19T12:18:23;182.33;;;182.33;;
71174;SDS011;58876;51.994;4.472;2023-11-19T12:20:49;188.15;;;188.15;;
71174;SDS011;58876;51.994;4.472;2023-11-19T12:23:15;174.96;;;174.96;;
71174;SDS011;58876;51.994;4.472;2023-11-19T12:25:41;230.23;;;230.23;;
71174;SDS011;58876;51.994;4.472;2023-11-19T12:28:11;208.16;;;208.16;;
71174;SDS011;58876;51.994;4.472;2023-11-19T12:30:38;198.69;;;198.69;;
71174;SDS011;58876;51.994;4.472;2023-11-19T12:33:07;223.71;;;223.71;;
71174;SDS011;58876;51.994;4.472;2023-11-19T12:35:38;241.82;;;241.82;;
71174;SDS011;58876;51.994;4.472;2023-11-19T12:38:04;248.10;;;248.10;;
71174;SDS011;58876;51.994;4.472;2023-11-19T12:40:30;233.27;;;233.27;;
71174;SDS011;58876;51.994;4.472;2023-11-19T12:42:55;237.51;;;237.51;;
71174;SDS011;58876;51.994;4.472;2023-11-19T12:45:21;206.66;;;206.66;;
71174;SDS011;58876;51.994;4.472;2023-11-19T12:47:48;199.33;;;199.33;;
71174;SDS011;58876;51.994;4.472;2023-11-19T12:50:16;187.06;;;187.06;;
71174;SDS011;58876;51.994;4.472;2023-11-19T12:52:47;166.73;;;166.73;;
71174;SDS011;58876;51.994;4.472;2023-11-19T12:55:25;206.00;;;206.00;;
71174;SDS011;58876;51.994;4.472;2023-11-19T12:57:54;183.34;;;183.34;;
71174;SDS011;58876;51.994;4.472;2023-11-19T13:00:21;161.77;;;161.77;;
71174;SDS011;58876;51.994;4.472;2023-11-19T13:02:52;163.86;;;163.86;;
71174;SDS011;58876;51.994;4.472;2023-11-19T13:05:29;142.69;;;142.69;;
71174;SDS011;58876;51.994;4.472;2023-11-19T13:08:08;170.85;;;170.85;;
71174;SDS011;58876;51.994;4.472;2023-11-19T13:10:50;134.41;;;134.41;;
71174;SDS011;58876;51.994;4.472;2023-11-19T13:13:17;103.85;;;103.85;;
71174;SDS011;58876;51.994;4.472;2023-11-19T13:15:42;63.69;;;63.69;;
71174;SDS011;58876;51.994;4.472;2023-11-19T13:18:10;32.60;;;32.60;;
71174;SDS011;58876;51.994;4.472;2023-11-19T13:20:36;22.08;;;22.08;;
71174;SDS011;58876;51.994;4.472;2023-11-19T13:23:03;19.02;;;19.02;;
71174;SDS011;58876;51.994;4.472;2023-11-19T13:25:30;14.85;;;14.85;;
71174;SDS011;58876;51.994;4.472;2023-11-19T13:27:57;17.93;;;17.93;;
71174;SDS011;58876;51.994;4.472;2023-11-19T13:30:24;18.45;;;18.45;;
71174;SDS011;58876;51.994;4.472;2023-11-19T13:32:50;16.33;;;16.33;;
71174;SDS011;58876;51.994;4.472;2023-11-19T13:35:17;17.94;;;17.94;;
71174;SDS011;58876;51.994;4.472;2023-11-19T13:37:43;19.40;;;19.40;;
71174;SDS011;58876;51.994;4.472;2023-11-19T13:40:10;22.72;;;22.72;;
71174;SDS011;58876;51.994;4.472;2023-11-19T13:42:43;25.20;;;25.20;;
71174;SDS011;58876;51.994;4.472;2023-11-19T13:45:13;29.17;;;29.17;;
71174;SDS011;58876;51.994;4.472;2023-11-19T13:47:40;38.07;;;38.07;;
71174;SDS011;58876;51.994;4.472;2023-11-19T13:50:13;44.95;;;44.95;;
71174;SDS011;58876;51.994;4.472;2023-11-19T13:52:41;57.48;;;57.48;;
71174;SDS011;58876;51.994;4.472;2023-11-19T13:55:10;53.72;;;53.72;;
71174;SDS011;58876;51.994;4.472;2023-11-19T13:57:36;56.09;;;56.09;;
71174;SDS011;58876;51.994;4.472;2023-11-19T14:00:04;56.40;;;56.40;;
71174;SDS011;58876;51.994;4.472;2023-11-19T14:02:34;66.84;;;66.84;;
71174;SDS011;58876;51.994;4.472;2023-11-19T14:05:00;65.34;;;65.34;;
71174;SDS011;58876;51.994;4.472;2023-11-19T14:07:26;69.87;;;69.87;;
71174;SDS011;58876;51.994;4.472;2023-11-19T14:09:52;61.25;;;61.25;;
71174;SDS011;58876;51.994;4.472;2023-11-19T14:12:18;70.64;;;70.64;;
71174;SDS011;58876;51.994;4.472;2023-11-19T14:14:43;74.17;;;74.17;;
71174;SDS011;58876;51.994;4.472;2023-11-19T14:17:09;84.26;;;84.26;;
71174;SDS011;58876;51.994;4.472;2023-11-19T14:19:36;65.42;;;65.42;;
71174;SDS011;58876;51.994;4.472;2023-11-19T14:22:02;78.20;;;78.20;;
71174;SDS011;58876;51.994;4.472;2023-11-19T14:24:27;80.09;;;80.09;;
71174;SDS011;58876;51.994;4.472;2023-11-19T14:26:53;87.65;;;87.65;;
71174;SDS011;58876;51.994;4.472;2023-11-19T14:29:18;91.07;;;91.07;;
71174;SDS011;58876;51.994;4.472;2023-11-19T14:31:44;74.85;;;74.85;;